Aransas Pass — WDF5061 — position and weather

sailwx.info

Track history (hours):
 
Tides and Currents Weather Stations Pressure Air Temp Water Temp Dewpoint Dewpoint Depression Visibility Wind Speed Wind Dir Waves Ship Positions

Aransas Pass

Owner: Higman Barge Lines, Inc., Orange, TX. More information available from US FCC via Universal Licensing System and Coast Guard Vessel Documentation Center.

Last reported at 2016-Feb-05 16:06 UTC. Time now 2016-Feb-08 02:05 UTC.
Position N 29°44' W 095°08'.

Length 26 m; draft 3 m.

Type: Towing. MMSI: 367458930.

Date/timePositionNaut miles runAvg speedWind from/ knotsBaromVisibWave heightAir tempDewpointWater temp
2016-Feb-05 16:06N 29°44' W 095°08'0 0.0
2016-Feb-05 05:12N 29°44' W 095°08'1 2.2
2016-Feb-05 04:32N 29°45' W 095°07'0 0.0
2016-Feb-05 03:31N 29°45' W 095°07'0 0.0
2016-Feb-05 01:24N 29°45' W 095°07'2 1.6
2016-Feb-05 00:26N 29°44' W 095°08'1 1.5
2016-Feb-04 23:31N 29°44' W 095°10'0 0.0
2016-Feb-04 22:32N 29°44' W 095°10'0 0.0
2016-Feb-04 21:32N 29°44' W 095°10'0 0.0
2016-Feb-04 19:25N 29°44' W 095°10'0 0.0
2016-Feb-04 17:30N 29°44' W 095°10'0 0.0
2016-Feb-04 16:30N 29°44' W 095°10'0 0.0
2016-Feb-04 15:30N 29°44' W 095°10'0 0.0
2016-Feb-04 14:31N 29°44' W 095°10'0 0.0
2016-Feb-04 13:33N 29°44' W 095°10'0 0.0
2016-Feb-04 12:33N 29°44' W 095°10'0 0.0
2016-Feb-04 11:33N 29°44' W 095°10'0 0.0
2016-Feb-04 10:26N 29°44' W 095°10'0 0.0
2016-Feb-04 09:24N 29°44' W 095°10'0 0.0
2016-Feb-04 08:19N 29°44' W 095°10'0 0.0
2016-Feb-04 07:29N 29°44' W 095°10'0 0.0
2016-Feb-04 06:32N 29°44' W 095°10'0 0.0
2016-Feb-04 05:25N 29°44' W 095°10'0 0.0
2016-Feb-04 04:33N 29°44' W 095°10'2 1.5
2016-Feb-04 03:31N 29°44' W 095°08'3 3.0
2016-Feb-04 02:32N 29°46' W 095°05'0 0.1
2016-Feb-04 01:34N 29°46' W 095°05'0 0.1
2016-Feb-04 00:33N 29°46' W 095°05'0 0.0
2016-Feb-03 23:32N 29°46' W 095°05'0 0.0
2016-Feb-03 22:24N 29°46' W 095°05'0 0.0
2016-Feb-03 21:31N 29°46' W 095°05'2 1.5
2016-Feb-03 20:22N 29°45' W 095°07'0 0.0
2016-Feb-03 19:32N 29°45' W 095°07'2 1.7
2016-Feb-03 18:33N 29°46' W 095°05'0 0.0
2016-Feb-03 17:33N 29°46' W 095°05'0 0.0
2016-Feb-03 16:30N 29°46' W 095°05'0 0.0
2016-Feb-03 15:05N 29°46' W 095°05'0 0.0
2016-Feb-03 14:33N 29°46' W 095°05'0 0.0
2016-Feb-03 13:23N 29°46' W 095°05'0 0.0
2016-Feb-03 12:33N 29°46' W 095°05'0 0.0
2016-Feb-03 11:13N 29°46' W 095°05'0 0.0
2016-Feb-03 10:33N 29°46' W 095°05'0 0.0
2016-Feb-03 09:31N 29°46' W 095°05'0 0.0
2016-Feb-03 08:32N 29°46' W 095°05'0 0.0
2016-Feb-03 07:34N 29°46' W 095°05'0 0.0
2016-Feb-03 06:34N 29°46' W 095°05'0 0.0
2016-Feb-03 05:33N 29°46' W 095°05'0 0.0
2016-Feb-03 04:31N 29°46' W 095°05'0 0.0
2016-Feb-03 03:29N 29°46' W 095°05'0 0.0
2016-Feb-03 02:32N 29°46' W 095°05'0 0.0
2016-Feb-03 01:33N 29°46' W 095°05'0 0.0
2016-Feb-03 00:26N 29°46' W 095°05'0 0.0
2016-Feb-02 23:29N 29°46' W 095°05'0 0.0
2016-Feb-02 22:33N 29°46' W 095°05'0 0.0
2016-Feb-02 21:33N 29°46' W 095°05'0 0.0
2016-Feb-02 20:33N 29°46' W 095°05'0 0.0
2016-Feb-02 19:32N 29°46' W 095°05'0 0.0
2016-Feb-02 18:34N 29°46' W 095°05'0 0.0
2016-Feb-02 17:32N 29°46' W 095°05'0 0.0
2016-Feb-02 16:32N 29°46' W 095°05'0 0.0
2016-Feb-02 15:31N 29°46' W 095°05'0 0.0
2016-Feb-02 14:32N 29°46' W 095°05'0 0.0
2016-Feb-02 13:32N 29°46' W 095°05'0 0.0
2016-Feb-02 12:33N 29°46' W 095°05'0 0.0
2016-Feb-02 11:32N 29°46' W 095°05'0 0.0
2016-Feb-02 10:33N 29°46' W 095°05'0 0.0
2016-Feb-02 09:30N 29°46' W 095°05'0 0.0
2016-Feb-02 08:32N 29°46' W 095°05'0 0.0
2016-Feb-02 07:32N 29°46' W 095°05'0 0.0
2016-Feb-02 06:33N 29°46' W 095°05'0 0.0
2016-Feb-02 05:32N 29°46' W 095°05'0 0.0
2016-Feb-02 04:32N 29°46' W 095°05'0 0.0
2016-Feb-02 03:34N 29°46' W 095°05'0 0.0
2016-Feb-02 02:29N 29°46' W 095°05'0 0.0
2016-Feb-02 01:33N 29°46' W 095°05'0 0.0
2016-Feb-02 00:33N 29°46' W 095°05'0 0.0
2016-Feb-01 23:32N 29°46' W 095°05'0 0.0
2016-Feb-01 22:33N 29°46' W 095°05'0 0.0
2016-Feb-01 21:33N 29°46' W 095°05'0 0.0
2016-Feb-01 20:24N 29°46' W 095°05'0 0.0
2016-Feb-01 19:33N 29°46' W 095°05'1 1.3
2016-Feb-01 18:29N 29°45' W 095°06'0 0.4
2016-Feb-01 17:33N 29°45' W 095°07'0 0.0
2016-Feb-01 16:34N 29°45' W 095°07'0 0.0
2016-Feb-01 15:29N 29°45' W 095°07'0 0.0
2016-Feb-01 14:24N 29°45' W 095°07'2 1.9
2016-Feb-01 13:33N 29°46' W 095°05'3 0.6
2016-Feb-01 08:11N 29°44' W 095°08'0 0.1
2016-Feb-01 07:32N 29°44' W 095°08'0 0.0
2016-Feb-01 06:30N 29°44' W 095°08'0 0.0
2016-Feb-01 05:08N 29°44' W 095°08'0 0.0
2016-Feb-01 03:17N 29°44' W 095°08'0 0.0
2016-Feb-01 00:07N 29°44' W 095°08'0 0.0
2016-Jan-31 23:26N 29°44' W 095°08'0 0.0
2016-Jan-31 22:18N 29°44' W 095°08'0 0.0
2016-Jan-31 21:32N 29°44' W 095°08'0 0.0
2016-Jan-30 02:11N 29°44' W 095°08'0 0.0
2016-Jan-30 01:33N 29°44' W 095°08'0 0.0
2016-Jan-29 23:09N 29°44' W 095°08'0 0.2
2016-Jan-29 22:03N 29°44' W 095°08'1 2.2
2016-Jan-29 21:33N 29°45' W 095°06'0 0.0
2016-Jan-29 19:25N 29°45' W 095°06'1 0.3
2016-Jan-29 14:34N 29°44' W 095°08'0 0.0
2016-Jan-29 13:32N 29°44' W 095°08'0 0.0
2016-Jan-29 11:32N 29°44' W 095°08'0 0.0
2016-Jan-29 10:29N 29°44' W 095°08'0 0.0
2016-Jan-29 09:33N 29°44' W 095°08'0 0.0
2016-Jan-29 08:33N 29°44' W 095°08'0 0.0
2016-Jan-29 07:34N 29°44' W 095°08'0 0.0
2016-Jan-29 06:33N 29°44' W 095°08'0 0.0
2016-Jan-29 05:23N 29°44' W 095°08'0 0.0
2016-Jan-28 13:32N 29°44' W 095°08'2 0.1
2016-Jan-27 21:13N 29°45' W 095°11'4 1.8
2016-Jan-27 19:17N 29°45' W 095°07'  
Track history (hours):
 
Tides and Currents Weather Stations Pressure Air Temp Water Temp Dewpoint Dewpoint Depression Visibility Wind Speed Wind Dir Waves Ship Positions

Aransas Pass

Owner: Higman Barge Lines, Inc., Orange, TX. More information available from US FCC via Universal Licensing System and Coast Guard Vessel Documentation Center.

Last reported at 2016-Feb-05 16:06 UTC. Time now 2016-Feb-08 02:05 UTC.
Position N 29°44' W 095°08'.

Length 26 m; draft 3 m.

Type: Towing. MMSI: 367458930.

Date/timePositionNaut miles runAvg speedWind from/ knotsBaromVisibWave heightAir tempDewpointWater temp
2016-Feb-05 16:06N 29°44' W 095°08'0 0.0
2016-Feb-05 05:12N 29°44' W 095°08'1 2.2
2016-Feb-05 04:32N 29°45' W 095°07'0 0.0
2016-Feb-05 03:31N 29°45' W 095°07'0 0.0
2016-Feb-05 01:24N 29°45' W 095°07'2 1.6
2016-Feb-05 00:26N 29°44' W 095°08'1 1.5
2016-Feb-04 23:31N 29°44' W 095°10'0 0.0
2016-Feb-04 22:32N 29°44' W 095°10'0 0.0
2016-Feb-04 21:32N 29°44' W 095°10'0 0.0
2016-Feb-04 19:25N 29°44' W 095°10'0 0.0
2016-Feb-04 17:30N 29°44' W 095°10'0 0.0
2016-Feb-04 16:30N 29°44' W 095°10'0 0.0
2016-Feb-04 15:30N 29°44' W 095°10'0 0.0
2016-Feb-04 14:31N 29°44' W 095°10'0 0.0
2016-Feb-04 13:33N 29°44' W 095°10'0 0.0
2016-Feb-04 12:33N 29°44' W 095°10'0 0.0
2016-Feb-04 11:33N 29°44' W 095°10'0 0.0
2016-Feb-04 10:26N 29°44' W 095°10'0 0.0
2016-Feb-04 09:24N 29°44' W 095°10'0 0.0
2016-Feb-04 08:19N 29°44' W 095°10'0 0.0
2016-Feb-04 07:29N 29°44' W 095°10'0 0.0
2016-Feb-04 06:32N 29°44' W 095°10'0 0.0
2016-Feb-04 05:25N 29°44' W 095°10'0 0.0
2016-Feb-04 04:33N 29°44' W 095°10'2 1.5
2016-Feb-04 03:31N 29°44' W 095°08'3 3.0
2016-Feb-04 02:32N 29°46' W 095°05'0 0.1
2016-Feb-04 01:34N 29°46' W 095°05'0 0.1
2016-Feb-04 00:33N 29°46' W 095°05'0 0.0
2016-Feb-03 23:32N 29°46' W 095°05'0 0.0
2016-Feb-03 22:24N 29°46' W 095°05'0 0.0
2016-Feb-03 21:31N 29°46' W 095°05'2 1.5
2016-Feb-03 20:22N 29°45' W 095°07'0 0.0
2016-Feb-03 19:32N 29°45' W 095°07'2 1.7
2016-Feb-03 18:33N 29°46' W 095°05'0 0.0
2016-Feb-03 17:33N 29°46' W 095°05'0 0.0
2016-Feb-03 16:30N 29°46' W 095°05'0 0.0
2016-Feb-03 15:05N 29°46' W 095°05'0 0.0
2016-Feb-03 14:33N 29°46' W 095°05'0 0.0
2016-Feb-03 13:23N 29°46' W 095°05'0 0.0
2016-Feb-03 12:33N 29°46' W 095°05'0 0.0
2016-Feb-03 11:13N 29°46' W 095°05'0 0.0
2016-Feb-03 10:33N 29°46' W 095°05'0 0.0
2016-Feb-03 09:31N 29°46' W 095°05'0 0.0
2016-Feb-03 08:32N 29°46' W 095°05'0 0.0
2016-Feb-03 07:34N 29°46' W 095°05'0 0.0
2016-Feb-03 06:34N 29°46' W 095°05'0 0.0
2016-Feb-03 05:33N 29°46' W 095°05'0 0.0
2016-Feb-03 04:31N 29°46' W 095°05'0 0.0
2016-Feb-03 03:29N 29°46' W 095°05'0 0.0
2016-Feb-03 02:32N 29°46' W 095°05'0 0.0
2016-Feb-03 01:33N 29°46' W 095°05'0 0.0
2016-Feb-03 00:26N 29°46' W 095°05'0 0.0
2016-Feb-02 23:29N 29°46' W 095°05'0 0.0
2016-Feb-02 22:33N 29°46' W 095°05'0 0.0
2016-Feb-02 21:33N 29°46' W 095°05'0 0.0
2016-Feb-02 20:33N 29°46' W 095°05'0 0.0
2016-Feb-02 19:32N 29°46' W 095°05'0 0.0
2016-Feb-02 18:34N 29°46' W 095°05'0 0.0
2016-Feb-02 17:32N 29°46' W 095°05'0 0.0
2016-Feb-02 16:32N 29°46' W 095°05'0 0.0
2016-Feb-02 15:31N 29°46' W 095°05'0 0.0
2016-Feb-02 14:32N 29°46' W 095°05'0 0.0
2016-Feb-02 13:32N 29°46' W 095°05'0 0.0
2016-Feb-02 12:33N 29°46' W 095°05'0 0.0
2016-Feb-02 11:32N 29°46' W 095°05'0 0.0
2016-Feb-02 10:33N 29°46' W 095°05'0 0.0
2016-Feb-02 09:30N 29°46' W 095°05'0 0.0
2016-Feb-02 08:32N 29°46' W 095°05'0 0.0
2016-Feb-02 07:32N 29°46' W 095°05'0 0.0
2016-Feb-02 06:33N 29°46' W 095°05'0 0.0
2016-Feb-02 05:32N 29°46' W 095°05'0 0.0
2016-Feb-02 04:32N 29°46' W 095°05'0 0.0
2016-Feb-02 03:34N 29°46' W 095°05'0 0.0
2016-Feb-02 02:29N 29°46' W 095°05'0 0.0
2016-Feb-02 01:33N 29°46' W 095°05'0 0.0
2016-Feb-02 00:33N 29°46' W 095°05'0 0.0
2016-Feb-01 23:32N 29°46' W 095°05'0 0.0
2016-Feb-01 22:33N 29°46' W 095°05'0 0.0
2016-Feb-01 21:33N 29°46' W 095°05'0 0.0
2016-Feb-01 20:24N 29°46' W 095°05'0 0.0
2016-Feb-01 19:33N 29°46' W 095°05'1 1.3
2016-Feb-01 18:29N 29°45' W 095°06'0 0.4
2016-Feb-01 17:33N 29°45' W 095°07'0 0.0
2016-Feb-01 16:34N 29°45' W 095°07'0 0.0
2016-Feb-01 15:29N 29°45' W 095°07'0 0.0
2016-Feb-01 14:24N 29°45' W 095°07'2 1.9
2016-Feb-01 13:33N 29°46' W 095°05'3 0.6
2016-Feb-01 08:11N 29°44' W 095°08'0 0.1
2016-Feb-01 07:32N 29°44' W 095°08'0 0.0
2016-Feb-01 06:30N 29°44' W 095°08'0 0.0
2016-Feb-01 05:08N 29°44' W 095°08'0 0.0
2016-Feb-01 03:17N 29°44' W 095°08'0 0.0
2016-Feb-01 00:07N 29°44' W 095°08'0 0.0
2016-Jan-31 23:26N 29°44' W 095°08'0 0.0
2016-Jan-31 22:18N 29°44' W 095°08'0 0.0
2016-Jan-31 21:32N 29°44' W 095°08'0 0.0
2016-Jan-30 02:11N 29°44' W 095°08'0 0.0
2016-Jan-30 01:33N 29°44' W 095°08'0 0.0
2016-Jan-29 23:09N 29°44' W 095°08'0 0.2
2016-Jan-29 22:03N 29°44' W 095°08'1 2.2
2016-Jan-29 21:33N 29°45' W 095°06'0 0.0
2016-Jan-29 19:25N 29°45' W 095°06'1 0.3
2016-Jan-29 14:34N 29°44' W 095°08'0 0.0
2016-Jan-29 13:32N 29°44' W 095°08'0 0.0
2016-Jan-29 11:32N 29°44' W 095°08'0 0.0
2016-Jan-29 10:29N 29°44' W 095°08'0 0.0
2016-Jan-29 09:33N 29°44' W 095°08'0 0.0
2016-Jan-29 08:33N 29°44' W 095°08'0 0.0
2016-Jan-29 07:34N 29°44' W 095°08'0 0.0
2016-Jan-29 06:33N 29°44' W 095°08'0 0.0
2016-Jan-29 05:23N 29°44' W 095°08'0 0.0
2016-Jan-28 13:32N 29°44' W 095°08'2 0.1
2016-Jan-27 21:13N 29°45' W 095°11'4 1.8
2016-Jan-27 19:17N 29°45' W 095°07'  

Dump ship's entire track history